»·PEaware :: N491H KPSP-L35

N491H :: KPSP-L35

FLIGHT INFORMATION

Flight Status: Arrived
Operator: Privately registered:
United States
More flights under this callsign
Pilot: Edward H. (2712)
Aircraft: CESSNA 172 SKYHAWK
(C172)
More flights by this aircraft type
Origin: KPSP Palm Springs Intl
United States
Destination: L35 Big Bear City
United States
More flights between these airports :: More routes between these airports
Route: +
File this flight plan on PilotEdge
Remarks:
Altitude:
(Current/Filed)
0ft
Speed:
(Current/Filed)
0kts
Departed: 19-Jun-18 07:39 AM
Arrived: 19-Jun-18 08:04 AM
Distance/Time
Traveled:
21nm/0:25
Distance/Time
To Go:
Arrived

Flight Plot

Page will automatically refresh every two minutes.


Map Options




Map Legend


Flown Route
Filed Route
Departure Airport
Arrival Airport
Navaid (VOR, NDB)
Fix

Horizontal Profiles

Position Reports

Time Latitude Longitude Heading Altitude Ground
Speed
19-Jun-18 07:22 33.913920 -116.568294 333 3580ft 80kts
19-Jun-18 07:29 33.824349 -116.498424 59 481ft 0kts
19-Jun-18 07:30 33.824349 -116.498424 59 481ft 0kts
19-Jun-18 07:31 33.824349 -116.498424 59 481ft 0kts
19-Jun-18 07:32 33.824349 -116.498424 59 481ft 0kts
19-Jun-18 07:33 33.824349 -116.498424 59 481ft 0kts
19-Jun-18 07:34 33.824349 -116.498424 59 481ft 0kts
19-Jun-18 07:35 33.824349 -116.498424 59 481ft 0kts
19-Jun-18 07:36 33.824349 -116.498424 59 481ft 0kts
19-Jun-18 07:37 33.824600 -116.499608 232 481ft 0kts
19-Jun-18 07:38 33.824963 -116.500607 322 481ft 23kts
19-Jun-18 07:39 33.839694 -116.514180 319 816ft 77kts
19-Jun-18 07:40 33.857449 -116.528394 329 1436ft 77kts
19-Jun-18 07:41 33.875787 -116.542203 318 2018ft 78kts
19-Jun-18 07:42 33.893021 -116.558409 324 2575ft 79kts
19-Jun-18 07:43 33.909953 -116.573239 323 3091ft 80kts
19-Jun-18 07:44 33.927650 -116.589401 323 3606ft 80kts
19-Jun-18 07:45 33.945520 -116.605546 325 4110ft 80kts
19-Jun-18 07:46 33.964542 -116.619560 331 4597ft 80kts
19-Jun-18 07:47 33.983627 -116.633782 329 5057ft 81kts
19-Jun-18 07:48 34.003957 -116.645391 338 5511ft 80kts
19-Jun-18 07:49 34.009082 -116.638526 246 5916ft 75kts
19-Jun-18 07:50 34.024614 -116.654299 325 6261ft 80kts
19-Jun-18 07:51 34.042524 -116.670509 322 6654ft 81kts
19-Jun-18 07:52 34.061430 -116.684924 320 7048ft 80kts
19-Jun-18 07:53 34.080600 -116.698563 341 7411ft 81kts
19-Jun-18 07:54 34.101702 -116.705439 345 7761ft 80kts
19-Jun-18 07:55 34.122485 -116.714427 325 8094ft 82kts
19-Jun-18 07:56 34.135888 -116.740173 299 8251ft 100kts
19-Jun-18 07:57 34.149285 -116.771098 298 8306ft 104kts
19-Jun-18 07:58 34.162838 -116.801640 300 8332ft 107kts
19-Jun-18 07:59 34.179684 -116.831631 308 8398ft 109kts
19-Jun-18 08:00 34.200430 -116.858579 317 8450ft 109kts
19-Jun-18 08:01 34.228882 -116.871194 0 8243ft 118kts
19-Jun-18 08:02 34.257344 -116.877215 332 7742ft 69kts
19-Jun-18 08:03 34.263733 -116.861400 86 6810ft 69kts
19-Jun-18 08:04 34.262872 -116.853593 180 6752ft 10kts
19-Jun-18 08:05 34.262418 -116.853617 175 6752ft 0kts
19-Jun-18 08:06 34.262418 -116.853617 175 6752ft 0kts
19-Jun-18 08:07 34.262407 -116.853619 186 6752ft 1kts
19-Jun-18 08:08 34.263231 -116.857360 268 6752ft 21kts
19-Jun-18 08:09 34.263335 -116.865645 354 6752ft 1kts
19-Jun-18 08:10 34.263811 -116.852766 89 6752ft 76kts
19-Jun-18 08:11 34.253029 -116.835441 179 7140ft 73kts
19-Jun-18 08:12 34.238060 -116.821751 108 7483ft 77kts
19-Jun-18 08:13 34.231150 -116.796871 98 7843ft 80kts
19-Jun-18 08:14 34.225959 -116.768743 107 8067ft 97kts
19-Jun-18 08:15 34.212183 -116.741228 127 8389ft 96kts
19-Jun-18 08:16 34.192403 -116.719706 154 8690ft 95kts
19-Jun-18 08:17 34.173929 -116.691075 99 8020ft 140kts
19-Jun-18 08:18 34.157831 -116.649411 116 7043ft 135kts

Navigation Log

Ident Type
Flight plan parsing failed, navigation log unavailable